Time;durP1;ratioP1;P1;durP2;ratioP2;P2;SDS_P1;SDS_P2;PMS_P1;PMS_P2;Temp;Humidity;BMP_temperature;BMP_pressure;BME280_temperature;BME280_humidity;BME280_pressure;Samples;Min_cycle;Max_cycle;Signal;HPM_P1;HPM_P2
2024/04/10 00:02:10;;;;;;;9.90;6.20;;;;;;;14.61;62.26;99643.06;131152;1260;108617;-78
2024/04/10 00:05:15;;;;;;;10.50;6.50;;;;;;;14.56;62.73;99642.29;131032;1250;109282;-78
2024/04/10 00:08:20;;;;;;;8.60;6.00;;;;;;;14.50;62.57;99644.70;130995;1253;106224;-78
2024/04/10 00:11:26;;;;;;;10.70;6.50;;;;;;;14.43;62.61;99645.44;130986;1254;108469;-78
2024/04/10 00:14:32;;;;;;;8.70;6.10;;;;;;;14.36;62.74;99648.80;130951;1254;106339;-79
2024/04/10 00:17:37;;;;;;;8.80;5.90;;;;;;;14.32;62.81;99650.75;131095;1253;105636;-78
2024/04/10 00:20:48;;;;;;;7.90;5.50;;;;;;;14.28;62.96;99647.89;131038;1256;108637;-78
2024/04/10 00:23:53;;;;;;;7.20;5.80;;;;;;;14.23;63.11;99654.05;131031;1254;108811;-78
2024/04/10 00:26:59;;;;;;;10.00;5.90;;;;;;;14.22;63.06;99655.94;131033;1252;108346;-78
2024/04/10 00:30:05;;;;;;;7.70;6.10;;;;;;;14.20;63.24;99657.69;130980;1255;108803;-79
2024/04/10 00:33:10;;;;;;;9.60;5.90;;;;;;;14.20;63.23;99661.06;131022;1253;107597;-78
2024/04/10 00:36:15;;;;;;;11.70;7.00;;;;;;;14.20;63.15;99658.42;131049;1254;106583;-78
2024/04/10 00:39:20;;;;;;;10.20;6.20;;;;;;;14.17;63.36;99664.51;131034;1254;107497;-78
2024/04/10 00:42:26;;;;;;;8.00;6.70;;;;;;;14.13;63.37;99663.65;131100;1254;108578;-78
2024/04/10 00:45:32;;;;;;;10.10;6.70;;;;;;;14.12;63.52;99663.55;131147;1257;107664;-78
2024/04/10 00:48:38;;;;;;;7.30;6.10;;;;;;;14.10;63.75;99668.29;131081;1261;107578;-79
2024/04/10 00:51:45;;;;;;;8.00;6.40;;;;;;;14.05;63.81;99675.77;131142;1255;107835;-79
2024/04/10 00:54:50;;;;;;;7.80;6.00;;;;;;;13.98;63.78;99678.39;131108;1254;106437;-79
2024/04/10 00:57:56;;;;;;;9.80;6.50;;;;;;;13.93;64.09;99683.62;131004;1263;107623;-78
2024/04/10 01:01:02;;;;;;;8.40;6.20;;;;;;;13.89;64.03;99689.02;131022;1251;108379;-78
2024/04/10 01:04:07;;;;;;;8.40;6.30;;;;;;;13.84;64.32;99689.25;130997;1263;108405;-78
2024/04/10 01:07:13;;;;;;;8.50;6.40;;;;;;;13.80;64.35;99689.08;130990;1254;108632;-78
2024/04/10 01:10:18;;;;;;;9.00;6.60;;;;;;;13.74;64.60;99689.17;131088;1263;107307;-78
2024/04/10 01:13:25;;;;;;;8.20;6.60;;;;;;;13.69;64.68;99695.55;131003;1254;106816;-78
2024/04/10 01:16:32;;;;;;;8.20;5.70;;;;;;;13.63;64.82;99693.59;131019;1257;106715;-78
2024/04/10 01:19:37;;;;;;;7.70;5.40;;;;;;;13.61;64.88;99695.68;130988;1254;107753;-79
2024/04/10 01:22:42;;;;;;;7.70;6.00;;;;;;;13.61;64.84;99702.48;131052;1254;107388;-78
2024/04/10 01:25:47;;;;;;;9.80;7.10;;;;;;;13.62;64.76;99708.93;131106;1254;108770;-79
2024/04/10 01:28:53;;;;;;;10.00;6.80;;;;;;;13.61;64.95;99711.53;130978;1253;107560;-78
2024/04/10 01:31:58;;;;;;;9.20;6.80;;;;;;;13.60;65.11;99717.16;131151;1254;107231;-79
2024/04/10 01:35:03;;;;;;;10.40;6.30;;;;;;;13.62;65.93;99724.32;131152;1253;106811;-79
2024/04/10 01:38:09;;;;;;;9.10;6.00;;;;;;;13.72;66.65;99731.34;131106;1251;108518;-78
2024/04/10 01:41:14;;;;;;;12.50;7.00;;;;;;;13.87;67.26;99739.12;130913;1252;107883;-79
2024/04/10 01:44:19;;;;;;;15.20;6.90;;;;;;;14.02;68.21;99744.66;131008;1253;109347;-78
2024/04/10 01:47:24;;;;;;;14.00;7.10;;;;;;;14.18;70.17;99757.36;131031;1254;106511;-78
2024/04/10 01:50:30;;;;;;;29.00;14.60;;;;;;;14.37;72.58;99762.45;131137;1253;107533;-79
2024/04/10 01:53:35;;;;;;;26.30;14.50;;;;;;;14.53;71.47;99764.48;131264;1264;106723;-79
2024/04/10 01:56:41;;;;;;;23.60;12.90;;;;;;;14.66;71.77;99771.33;131065;1255;107553;-78
2024/04/10 01:59:46;;;;;;;35.20;22.40;;;;;;;14.74;73.61;99773.21;131001;1253;108788;-79
2024/04/10 02:02:51;;;;;;;71.30;42.20;;;;;;;14.77;74.03;99777.60;130983;1254;106515;-79
2024/04/10 02:05:56;;;;;;;16.90;11.30;;;;;;;14.78;75.93;99788.40;130982;1255;107605;-79
2024/04/10 02:09:02;;;;;;;31.10;18.10;;;;;;;14.79;74.77;99795.33;131013;1253;106456;-78
2024/04/10 02:12:07;;;;;;;29.70;16.10;;;;;;;14.81;76.70;99801.71;131012;1263;106568;-78
2024/04/10 02:15:13;;;;;;;28.00;16.30;;;;;;;14.80;77.07;99802.00;131005;1254;108428;-78
2024/04/10 02:18:18;;;;;;;28.80;17.20;;;;;;;14.77;77.78;99804.52;131021;1254;106663;-78
2024/04/10 02:21:23;;;;;;;33.30;17.00;;;;;;;14.72;80.31;99813.52;131014;1254;108731;-78
2024/04/10 02:24:28;;;;;;;25.80;15.30;;;;;;;14.69;80.44;99816.30;131010;1255;106644;-78
2024/04/10 02:27:34;;;;;;;33.50;20.50;;;;;;;14.66;81.72;99818.17;131172;1263;107844;-78
2024/04/10 02:30:39;;;;;;;26.20;16.40;;;;;;;14.65;81.50;99823.94;130953;1257;107695;-78
2024/04/10 02:33:45;;;;;;;21.50;12.00;;;;;;;14.59;83.91;99831.34;131026;1251;107203;-78
2024/04/10 02:36:50;;;;;;;23.20;13.90;;;;;;;14.53;83.13;99836.77;131052;1251;107713;-78
2024/04/10 02:39:56;;;;;;;22.20;13.50;;;;;;;14.50;84.03;99841.02;131032;1261;107458;-78
2024/04/10 02:43:05;;;;;;;19.40;11.60;;;;;;;14.47;83.83;99849.83;130971;1251;107620;-78
2024/04/10 02:46:10;;;;;;;16.80;10.10;;;;;;;14.43;84.79;99855.73;131132;1254;255676;-78
2024/04/10 02:49:15;;;;;;;23.60;14.00;;;;;;;14.41;83.99;99864.38;131204;1254;107002;-78
2024/04/10 02:52:20;;;;;;;22.90;13.30;;;;;;;14.39;84.96;99871.31;131088;1251;108513;-78
2024/04/10 02:55:26;;;;;;;18.90;12.00;;;;;;;14.34;85.60;99880.67;131174;1263;108362;-78
2024/04/10 02:58:31;;;;;;;20.90;11.40;;;;;;;14.29;85.61;99888.77;131073;1255;108766;-79
2024/04/10 03:01:38;;;;;;;16.70;10.90;;;;;;;14.24;87.40;99891.48;131078;1255;108703;-78
2024/04/10 03:04:44;;;;;;;18.00;11.00;;;;;;;14.19;86.80;99898.17;130959;1254;107556;-78
2024/04/10 03:07:49;;;;;;;23.60;11.20;;;;;;;14.13;87.00;99896.95;131145;1251;108769;-78
2024/04/10 03:10:54;;;;;;;17.00;9.90;;;;;;;14.07;86.39;99906.20;131270;1265;108780;-78
2024/04/10 03:13:59;;;;;;;20.60;10.30;;;;;;;14.04;87.12;99912.63;131104;1254;106810;-78
2024/04/10 03:17:05;;;;;;;14.20;10.40;;;;;;;14.03;87.80;99924.63;131132;1251;107834;-78
2024/04/10 03:20:12;;;;;;;19.20;11.90;;;;;;;13.98;86.84;99930.54;131195;1254;107002;-78
2024/04/10 03:23:18;;;;;;;19.60;12.10;;;;;;;13.92;87.69;99941.25;131157;1254;106750;-78
2024/04/10 03:26:23;;;;;;;19.10;10.80;;;;;;;13.89;88.46;99946.85;131057;1254;108832;-80
2024/04/10 03:29:28;;;;;;;15.80;10.80;;;;;;;13.88;87.16;99957.90;131157;1252;107564;-78
2024/04/10 03:32:34;;;;;;;19.40;11.10;;;;;;;13.87;88.48;99973.23;131024;1253;108457;-78
2024/04/10 03:35:39;;;;;;;17.50;11.00;;;;;;;13.86;89.05;99979.95;130964;1254;108714;-78
2024/04/10 03:38:45;;;;;;;15.80;11.30;;;;;;;13.88;88.48;99990.59;130999;1262;107479;-79
2024/04/10 03:41:50;;;;;;;18.00;11.60;;;;;;;13.92;88.02;99998.20;131036;1254;107518;-79
2024/04/10 03:44:57;;;;;;;21.50;11.60;;;;;;;13.90;89.10;100012.49;131027;1264;107323;-78
2024/04/10 03:48:03;;;;;;;18.70;10.90;;;;;;;13.91;88.90;100017.27;131096;1254;108176;-78
2024/04/10 03:51:09;;;;;;;16.70;10.60;;;;;;;13.93;88.78;100022.36;131146;1253;108576;-78
2024/04/10 03:54:15;;;;;;;17.30;11.40;;;;;;;13.96;87.81;100028.14;131144;1254;107702;-78
2024/04/10 03:57:21;;;;;;;16.50;11.40;;;;;;;13.96;88.82;100040.40;131034;1254;105977;-78
2024/04/10 04:00:26;;;;;;;16.40;11.10;;;;;;;13.95;89.72;100044.13;131039;1253;108580;-79
2024/04/10 04:03:33;;;;;;;15.70;10.50;;;;;;;13.95;89.62;100053.58;131378;1251;107959;-78
2024/04/10 04:06:42;;;;;;;17.90;12.00;;;;;;;13.95;89.27;100067.20;131585;1250;107683;-79
2024/04/10 04:09:47;;;;;;;14.90;11.20;;;;;;;13.93;89.18;100067.73;132498;1258;107005;-78
2024/04/10 04:12:54;;;;;;;14.40;10.60;;;;;;;13.91;89.36;100073.77;131334;1253;106673;-79
2024/04/10 04:15:59;;;;;;;15.70;10.20;;;;;;;13.92;88.87;100087.18;131430;1247;107934;-79
2024/04/10 04:19:05;;;;;;;18.00;10.60;;;;;;;13.93;88.89;100088.92;131370;1248;108310;-80
2024/04/10 04:22:10;;;;;;;13.40;10.20;;;;;;;13.92;88.96;100096.63;131044;1251;107623;-79
2024/04/10 04:25:15;;;;;;;14.50;9.90;;;;;;;13.93;88.97;100104.30;131332;1250;106609;-79
2024/04/10 04:28:21;;;;;;;12.70;9.50;;;;;;;13.90;89.36;100112.06;130994;1254;108603;-78
2024/04/10 04:31:26;;;;;;;13.50;10.00;;;;;;;13.88;88.79;100116.06;131060;1253;108310;-78
2024/04/10 04:34:34;;;;;;;16.00;8.90;;;;;;;13.86;89.00;100130.17;131186;1254;107458;-78
2024/04/10 04:37:40;;;;;;;11.70;8.40;;;;;;;13.85;88.75;100142.23;131108;1251;108797;-78
2024/04/10 04:40:46;;;;;;;14.10;8.40;;;;;;;13.86;87.88;100153.66;131076;1254;106803;-78
2024/04/10 04:43:51;;;;;;;15.30;8.10;;;;;;;13.88;87.69;100165.83;131063;1254;108736;-78
2024/04/10 04:46:57;;;;;;;10.00;6.60;;;;;;;13.84;87.83;100175.20;131117;1251;106960;-78
2024/04/10 04:50:03;;;;;;;9.00;6.10;;;;;;;13.79;87.66;100183.14;131029;1253;107737;-77
2024/04/10 04:53:09;;;;;;;9.60;6.90;;;;;;;13.74;88.05;100191.48;131023;1254;108672;-81
2024/04/10 04:56:14;;;;;;;11.40;6.80;;;;;;;13.73;87.79;100193.83;131163;1254;107683;-81
2024/04/10 04:59:20;;;;;;;10.10;6.10;;;;;;;13.68;87.43;100201.46;131282;1250;107807;-79
2024/04/10 05:02:27;;;;;;;7.90;5.50;;;;;;;13.65;87.24;100203.69;130897;1251;107897;-80
2024/04/10 05:05:33;;;;;;;8.80;5.50;;;;;;;13.63;87.25;100217.64;131124;1255;107727;-79
2024/04/10 05:08:39;;;;;;;6.50;4.80;;;;;;;13.66;86.76;100221.66;131007;1251;108549;-80
2024/04/10 05:11:44;;;;;;;6.70;4.80;;;;;;;13.63;86.64;100230.75;130998;1254;108695;-77
2024/04/10 05:14:52;;;;;;;7.20;5.50;;;;;;;13.60;86.43;100235.02;131129;1254;107782;-75
2024/04/10 05:17:57;;;;;;;8.00;5.70;;;;;;;13.60;86.14;100243.42;131108;1251;107553;-76
2024/04/10 05:21:07;;;;;;;9.60;5.00;;;;;;;13.59;86.31;100248.32;132653;1251;107662;-76
2024/04/10 05:24:13;;;;;;;7.40;4.40;;;;;;;13.59;85.64;100267.83;132116;1250;108595;-76
2024/04/10 05:27:26;;;;;;;5.80;4.30;;;;;;;13.56;85.14;100277.28;131056;1254;108381;-76
2024/04/10 05:30:32;;;;;;;7.50;3.80;;;;;;;13.56;84.90;100291.36;130982;1254;108839;-76
2024/04/10 05:33:37;;;;;;;6.00;3.50;;;;;;;13.56;84.57;100296.02;130956;1253;107704;-76
2024/04/10 05:36:42;;;;;;;4.50;3.60;;;;;;;13.55;84.37;100306.61;131186;1261;107366;-78
2024/04/10 05:39:50;;;;;;;5.40;3.30;;;;;;;13.55;84.38;100312.01;131122;1253;106806;-76
2024/04/10 05:42:55;;;;;;;7.60;4.80;;;;;;;13.55;84.13;100309.66;130963;1251;108625;-76
2024/04/10 05:46:01;;;;;;;7.70;4.20;;;;;;;13.58;83.95;100307.95;131162;1251;108295;-77
2024/04/10 05:49:07;;;;;;;7.60;4.40;;;;;;;13.60;83.70;100317.05;131074;1253;108744;-76
2024/04/10 05:52:13;;;;;;;5.70;3.50;;;;;;;13.59;83.16;100320.73;131177;1251;107489;-76
2024/04/10 05:55:18;;;;;;;9.40;3.50;;;;;;;13.62;82.80;100334.14;131076;1254;107694;-76
2024/04/10 05:58:23;;;;;;;7.00;4.70;;;;;;;13.65;82.26;100339.54;131241;1251;107799;-75
2024/04/10 06:01:29;;;;;;;7.10;3.10;;;;;;;13.69;81.88;100346.89;131158;1250;108678;-75
2024/04/10 06:04:34;;;;;;;5.00;2.70;;;;;;;13.68;81.01;100349.38;131312;1254;107749;-76
2024/04/10 06:07:42;;;;;;;3.80;2.60;;;;;;;13.70;80.30;100364.18;130929;1250;107744;-77
2024/04/10 06:10:53;;;;;;;7.30;3.20;;;;;;;13.75;79.94;100372.16;131195;1251;108962;-76
2024/04/10 06:13:58;;;;;;;6.60;2.30;;;;;;;13.84;78.24;100376.03;130930;1263;107355;-75
2024/04/10 06:17:04;;;;;;;4.90;2.10;;;;;;;13.86;77.25;100380.73;131248;1256;107598;-77
2024/04/10 06:20:11;;;;;;;3.90;1.90;;;;;;;13.95;77.42;100389.11;130975;1250;108215;-77
2024/04/10 06:23:16;;;;;;;5.00;2.50;;;;;;;14.01;76.09;100397.88;130966;1251;108414;-80
2024/04/10 06:26:21;;;;;;;4.40;1.90;;;;;;;14.01;74.85;100405.95;130932;1254;108612;-76
2024/04/10 06:29:27;;;;;;;2.90;1.50;;;;;;;14.03;74.47;100409.45;131136;1254;107691;-76
2024/04/10 06:32:32;;;;;;;2.70;1.90;;;;;;;14.08;74.39;100418.05;131005;1254;108656;-76
2024/04/10 06:35:37;;;;;;;4.90;2.20;;;;;;;14.18;73.90;100417.19;130901;1254;106702;-76
2024/04/10 06:38:42;;;;;;;10.30;1.80;;;;;;;14.23;71.88;100431.13;131081;1253;107758;-77
2024/04/10 06:41:48;;;;;;;4.90;1.70;;;;;;;14.16;70.26;100434.36;130986;1263;108552;-78
2024/04/10 06:44:53;;;;;;;2.70;1.40;;;;;;;14.23;71.10;100437.09;131150;1250;107314;-79
2024/04/10 06:47:58;;;;;;;4.50;1.70;;;;;;;14.29;69.56;100445.19;131005;1254;108492;-76
2024/04/10 06:51:05;;;;;;;3.60;1.60;;;;;;;14.32;69.78;100446.63;131025;1251;107435;-76
2024/04/10 06:54:10;;;;;;;4.00;1.90;;;;;;;14.36;68.36;100454.50;131001;1254;108710;-76
2024/04/10 06:57:15;;;;;;;5.40;1.70;;;;;;;14.41;69.08;100453.67;131098;1254;107599;-76
2024/04/10 07:00:21;;;;;;;4.10;1.90;;;;;;;14.47;68.15;100458.80;131059;1254;108431;-76
2024/04/10 07:03:27;;;;;;;9.60;2.30;;;;;;;14.58;68.21;100479.19;131565;1261;109417;-76
2024/04/10 07:06:32;;;;;;;4.90;2.20;;;;;;;14.62;66.73;100479.69;130923;1254;108740;-76
2024/04/10 07:09:37;;;;;;;3.20;1.70;;;;;;;14.57;65.64;100479.85;130948;1253;106651;-75
2024/04/10 07:12:43;;;;;;;6.70;1.90;;;;;;;14.50;65.93;100488.85;130951;1255;107689;-76
2024/04/10 07:15:56;;;;;;;5.60;1.70;;;;;;;14.56;65.85;100498.65;131020;1250;108874;-77
2024/04/10 07:19:01;;;;;;;4.30;1.90;;;;;;;14.54;65.01;100502.00;131200;1251;108737;-76
2024/04/10 07:22:08;;;;;;;3.60;1.70;;;;;;;14.52;64.35;100511.90;130979;1250;107768;-76
2024/04/10 07:25:14;;;;;;;3.50;1.80;;;;;;;14.54;64.04;100517.94;131073;1251;107087;-78
2024/04/10 07:28:19;;;;;;;4.50;2.60;;;;;;;14.49;63.67;100522.80;131166;1254;108672;-78
2024/04/10 07:31:28;;;;;;;3.60;2.20;;;;;;;14.50;64.31;100530.95;131101;1254;108725;-77
2024/04/10 07:34:33;;;;;;;5.10;2.70;;;;;;;14.61;63.74;100533.66;130969;1254;107661;-77
2024/04/10 07:37:39;;;;;;;4.30;1.40;;;;;;;14.60;63.40;100530.34;131150;1254;107389;-76
2024/04/10 07:40:54;;;;;;;4.40;1.40;;;;;;;14.77;64.16;100530.45;130919;1262;107996;-76
2024/04/10 07:43:59;;;;;;;3.90;1.40;;;;;;;14.87;61.66;100542.73;130942;1254;107772;-76
2024/04/10 07:47:06;;;;;;;3.10;1.20;;;;;;;14.85;60.61;100550.45;131157;1254;107365;-78
2024/04/10 07:50:11;;;;;;;4.60;1.20;;;;;;;14.86;60.62;100551.96;131090;1254;107636;-78
2024/04/10 07:53:17;;;;;;;3.90;1.30;;;;;;;14.97;60.95;100552.94;131036;1254;107812;-78
2024/04/10 07:56:22;;;;;;;2.90;1.40;;;;;;;15.06;60.40;100560.52;131139;1251;107714;-79
2024/04/10 07:59:27;;;;;;;6.20;1.30;;;;;;;15.11;60.55;100559.89;131123;1253;108549;-80
2024/04/10 08:02:34;;;;;;;3.20;1.50;;;;;;;15.22;61.33;100560.31;131062;1251;107722;-78
2024/04/10 08:05:39;;;;;;;3.30;1.50;;;;;;;15.35;61.27;100557.18;131191;1254;107434;-79
2024/04/10 08:08:45;;;;;;;4.90;1.30;;;;;;;15.30;60.06;100562.38;131065;1250;108552;-79
2024/04/10 08:11:50;;;;;;;4.90;1.50;;;;;;;15.35;61.33;100565.04;131004;1250;107069;-80
2024/04/10 08:14:56;;;;;;;4.00;1.30;;;;;;;15.49;60.88;100565.23;131098;1254;109090;-79
2024/04/10 08:18:01;;;;;;;4.00;1.30;;;;;;;15.60;61.20;100566.10;131041;1254;107787;-77
2024/04/10 08:21:08;;;;;;;4.20;1.30;;;;;;;15.79;61.53;100571.85;130856;1254;108452;-77
2024/04/10 08:24:14;;;;;;;4.90;1.60;;;;;;;15.95;60.85;100579.42;131078;1254;109074;-76
2024/04/10 08:27:19;;;;;;;2.80;1.10;;;;;;;16.02;60.08;100582.75;131003;1254;107592;-78
2024/04/10 08:30:24;;;;;;;2.20;1.10;;;;;;;15.99;58.36;100583.64;131081;1254;108382;-79
2024/04/10 08:33:30;;;;;;;2.60;1.20;;;;;;;15.98;58.84;100589.46;131068;1253;107793;-79
2024/04/10 08:36:36;;;;;;;29.80;10.20;;;;;;;16.04;57.95;100589.45;131073;1255;106588;-80
2024/04/10 08:39:41;;;;;;;29.90;16.50;;;;;;;16.07;58.98;100589.50;130968;1255;106605;-78
2024/04/10 08:42:51;;;;;;;7.30;3.90;;;;;;;16.20;58.25;100589.05;130945;1254;107989;-77
2024/04/10 08:45:57;;;;;;;4.00;1.60;;;;;;;16.29;58.60;100591.83;131006;1250;107485;-79
2024/04/10 08:49:04;;;;;;;3.90;1.70;;;;;;;16.32;57.41;100604.77;131077;1254;108562;-78
2024/04/10 08:52:11;;;;;;;15.70;7.70;;;;;;;16.27;57.31;100607.80;131691;1250;108088;-77
2024/04/10 08:55:17;;;;;;;6.10;3.20;;;;;;;16.29;57.48;100617.98;131571;1249;108721;-80
2024/04/10 08:58:22;;;;;;;9.20;3.70;;;;;;;16.41;58.50;100621.96;131333;1250;107713;-79
2024/04/10 09:01:30;;;;;;;4.50;1.80;;;;;;;16.55;56.80;100621.76;131286;1253;108721;-77
2024/04/10 09:04:45;;;;;;;7.30;1.40;;;;;;;16.60;55.73;100635.35;132567;1249;107986;-78
2024/04/10 09:07:59;;;;;;;5.80;1.40;;;;;;;16.62;55.43;100639.38;131047;1254;107759;-86
2024/04/10 09:11:05;;;;;;;5.70;1.80;;;;;;;16.65;53.81;100650.48;131194;1254;107680;-78
2024/04/10 09:14:11;;;;;;;3.70;1.10;;;;;;;16.60;53.45;100649.06;130992;1255;107491;-79
2024/04/10 09:17:18;;;;;;;3.00;1.20;;;;;;;16.52;53.05;100654.11;131011;1254;106381;-78
2024/04/10 09:20:24;;;;;;;4.60;1.10;;;;;;;16.57;53.62;100659.09;130964;1250;106377;-79
2024/04/10 09:23:30;;;;;;;2.80;1.00;;;;;;;16.64;52.90;100665.41;131059;1265;106949;-79
2024/04/10 09:26:36;;;;;;;5.30;1.70;;;;;;;16.62;51.71;100670.45;131055;1254;108825;-79
2024/04/10 09:29:41;;;;;;;17.10;6.80;;;;;;;16.69;53.77;100666.83;131054;1254;108648;-78
2024/04/10 09:32:47;;;;;;;5.30;2.30;;;;;;;16.71;54.30;100673.14;131047;1250;106885;-78
2024/04/10 09:35:55;;;;;;;4.70;2.00;;;;;;;16.68;54.77;100675.98;131056;1254;106413;-78
2024/04/10 09:39:03;;;;;;;4.40;2.00;;;;;;;16.57;54.37;100676.09;131011;1250;107960;-78
2024/04/10 09:42:24;;;;;;;4.80;2.10;;;;;;;16.57;55.07;100683.33;131114;1254;107485;-78
2024/04/10 09:45:36;;;;;;;5.30;2.30;;;;;;;16.60;54.08;100690.27;131183;1254;107745;-84
2024/04/10 09:48:48;;;;;;;2.60;2.10;;;;;;;16.64;54.39;100696.47;131432;1260;106768;-78
2024/04/10 09:51:57;;;;;;;2.90;1.80;;;;;;;16.58;54.65;100696.12;131239;1253;108707;-79
2024/04/10 09:55:04;;;;;;;4.30;2.00;;;;;;;16.70;55.44;100699.55;131155;1253;107675;-79
2024/04/10 09:58:12;;;;;;;3.40;2.10;;;;;;;16.80;55.10;100703.36;131276;1254;108432;-79
2024/04/10 10:01:26;;;;;;;3.10;2.30;;;;;;;16.80;54.99;100706.06;131423;1253;108005;-76
2024/04/10 10:04:39;;;;;;;4.30;2.20;;;;;;;16.65;54.00;100717.17;132593;1252;108692;-76
2024/04/10 10:07:44;;;;;;;6.90;2.30;;;;;;;16.56;55.09;100717.39;131594;1258;108326;-77
2024/04/10 10:10:52;;;;;;;3.20;2.10;;;;;;;16.60;55.23;100714.85;131113;1254;109053;-78
2024/04/10 10:14:02;;;;;;;4.00;2.20;;;;;;;16.64;54.77;100724.70;131134;1254;106774;-78
2024/04/10 10:17:10;;;;;;;4.40;2.20;;;;;;;16.49;54.31;100731.65;131120;1253;107367;-77
2024/04/10 10:20:23;;;;;;;6.70;2.50;;;;;;;16.45;55.11;100736.91;131084;1252;107844;-80
2024/04/10 10:23:28;;;;;;;4.00;2.10;;;;;;;16.49;55.71;100734.82;130982;1253;108695;-77
2024/04/10 10:26:34;;;;;;;5.20;2.50;;;;;;;16.58;55.42;100750.83;130950;1254;107391;-76
2024/04/10 10:29:39;;;;;;;4.60;2.40;;;;;;;16.51;54.59;100751.14;130912;1250;108643;-76
2024/04/10 10:32:44;;;;;;;5.80;2.50;;;;;;;16.37;54.83;100752.44;130940;1254;107597;-75
2024/04/10 10:35:50;;;;;;;5.70;2.40;;;;;;;16.35;55.21;100759.70;131035;1251;107828;-78
2024/04/10 10:39:05;;;;;;;3.30;2.40;;;;;;;16.33;54.98;100762.64;130972;1254;106696;-76
2024/04/10 10:42:14;;;;;;;3.50;2.30;;;;;;;16.38;54.68;100765.23;130959;1250;107688;-78
2024/04/10 10:45:19;;;;;;;3.60;2.10;;;;;;;16.47;55.36;100766.92;131167;1254;108731;-79
2024/04/10 10:48:26;;;;;;;5.10;2.40;;;;;;;16.43;54.08;100784.02;131302;1252;107624;-78
2024/04/10 10:51:32;;;;;;;4.70;2.40;;;;;;;16.25;54.55;100776.42;131201;1253;106816;-76
2024/04/10 10:54:39;;;;;;;6.10;2.50;;;;;;;16.23;54.79;100774.70;131278;1250;107457;-76
2024/04/10 10:57:45;;;;;;;2.90;2.20;;;;;;;16.21;54.43;100789.51;131021;1254;107899;-78
2024/04/10 11:00:51;;;;;;;6.60;2.50;;;;;;;16.16;54.77;100793.99;131152;1253;107442;-76
2024/04/10 11:03:56;;;;;;;5.10;2.30;;;;;;;16.07;54.82;100799.80;131130;1253;107768;-76
2024/04/10 11:07:09;;;;;;;5.10;2.20;;;;;;;15.94;54.96;100807.67;131063;1257;107802;-77
2024/04/10 11:10:14;;;;;;;5.20;2.10;;;;;;;15.81;55.28;100812.64;131224;1253;107921;-78
2024/04/10 11:13:20;;;;;;;5.50;2.20;;;;;;;15.71;55.55;100819.50;131211;1255;107314;-79
2024/04/10 11:16:32;;;;;;;3.80;2.10;;;;;;;15.63;55.90;100824.86;131252;1253;107586;-79
2024/04/10 11:19:38;;;;;;;8.30;2.20;;;;;;;15.61;56.34;100832.65;131183;1253;108681;-78
2024/04/10 11:22:43;;;;;;;3.60;2.10;;;;;;;15.57;56.60;100835.64;131218;1253;107735;-79
2024/04/10 11:25:50;;;;;;;2.70;1.80;;;;;;;15.49;56.66;100839.55;131301;1250;107706;-79
2024/04/10 11:28:56;;;;;;;6.50;2.40;;;;;;;15.45;56.81;100843.34;131242;1253;107606;-77
2024/04/10 11:32:03;;;;;;;3.40;2.00;;;;;;;15.50;57.07;100843.92;131168;1253;108758;-78
2024/04/10 11:35:13;;;;;;;5.20;2.50;;;;;;;15.54;57.07;100846.34;131265;1253;107196;-77
2024/04/10 11:38:18;;;;;;;3.00;1.70;;;;;;;15.62;57.42;100855.86;130864;1254;107666;-77
2024/04/10 11:41:23;;;;;;;4.00;1.80;;;;;;;15.74;57.27;100862.41;131191;1248;108142;-79
2024/04/10 11:44:28;;;;;;;5.00;2.60;;;;;;;15.77;56.81;100872.21;130929;1256;108651;-77
2024/04/10 11:47:36;;;;;;;3.80;2.20;;;;;;;15.66;56.40;100877.62;131010;1253;106749;-77
2024/04/10 11:50:41;;;;;;;3.40;2.20;;;;;;;15.53;56.15;100882.65;130916;1251;108183;-78
2024/04/10 11:53:46;;;;;;;3.20;2.20;;;;;;;15.49;56.43;100879.70;131132;1255;106776;-76
2024/04/10 11:56:51;;;;;;;2.90;1.80;;;;;;;15.52;56.30;100884.96;131176;1255;107242;-77
2024/04/10 11:59:57;;;;;;;4.10;1.80;;;;;;;15.72;56.53;100891.88;131015;1251;108426;-77
2024/04/10 12:03:02;;;;;;;4.10;1.80;;;;;;;15.86;55.63;100896.77;131045;1251;106445;-76
2024/04/10 12:06:08;;;;;;;3.20;2.10;;;;;;;15.95;55.48;100897.36;131106;1254;107026;-76
2024/04/10 12:09:14;;;;;;;5.20;2.20;;;;;;;16.04;55.38;100903.77;130866;1255;106743;-77
2024/04/10 12:12:21;;;;;;;3.70;2.00;;;;;;;16.05;54.89;100908.67;130864;1255;107590;-77
2024/04/10 12:15:27;;;;;;;3.10;2.00;;;;;;;15.93;54.82;100913.11;130861;1255;106820;-76
2024/04/10 12:18:32;;;;;;;34.20;13.10;;;;;;;15.79;54.65;100917.51;130874;1255;107761;-76
2024/04/10 12:21:38;;;;;;;4.00;2.10;;;;;;;15.83;55.04;100915.05;131150;1250;107816;-77
2024/04/10 12:24:44;;;;;;;2.80;1.70;;;;;;;15.98;54.75;100919.35;130982;1255;108762;-76
2024/04/10 12:27:50;;;;;;;7.80;4.40;;;;;;;16.06;54.45;100925.16;131022;1253;108773;-77
2024/04/10 12:30:56;;;;;;;59.60;40.00;;;;;;;16.15;54.78;100935.40;131137;1254;107812;-77
2024/04/10 12:34:02;;;;;;;14.10;11.00;;;;;;;16.15;53.80;100940.36;131062;1250;108722;-76
2024/04/10 12:40:31;;;;;;;6.20;3.40;;;;;;;16.35;53.80;100933.60;131012;1251;108735;-76
2024/04/10 12:43:40;;;;;;;5.50;3.20;;;;;;;16.38;53.29;100933.31;130991;1254;107571;-76
2024/04/10 12:46:48;;;;;;;9.80;6.40;;;;;;;16.38;53.06;100923.02;131115;1250;107135;-76
2024/04/10 12:49:54;;;;;;;5.10;2.20;;;;;;;16.36;53.51;100931.55;130970;1254;108696;-76
2024/04/10 12:52:59;;;;;;;7.40;5.70;;;;;;;16.42;53.24;100930.52;130948;1253;108725;-76
2024/04/10 12:56:06;;;;;;;3.50;2.10;;;;;;;16.44;53.34;100934.89;130923;1254;106547;-76
2024/04/10 12:59:11;;;;;;;88.10;67.20;;;;;;;16.36;53.76;100941.75;130964;1255;107264;-76
2024/04/10 13:02:16;;;;;;;6.10;4.70;;;;;;;16.35;54.11;100941.92;131006;1255;106044;-76
2024/04/10 13:05:22;;;;;;;4.20;2.10;;;;;;;16.25;53.91;100951.63;131155;1254;107735;-77
2024/04/10 13:08:28;;;;;;;2.40;1.90;;;;;;;16.18;54.14;100944.58;130940;1250;107114;-77
2024/04/10 13:11:33;;;;;;;5.60;1.80;;;;;;;16.23;54.50;100948.16;131021;1254;106822;-77
2024/04/10 13:14:38;;;;;;;4.00;2.00;;;;;;;16.20;54.37;100947.86;131211;1255;108710;-76
2024/04/10 13:17:44;;;;;;;4.50;2.00;;;;;;;16.17;54.58;100953.42;130965;1254;106567;-76
2024/04/10 13:20:56;;;;;;;3.30;2.10;;;;;;;16.16;54.90;100955.15;131034;1254;106680;-76
2024/04/10 13:24:02;;;;;;;16.00;3.10;;;;;;;16.14;54.98;100951.48;131018;1253;108516;-77
2024/04/10 13:27:09;;;;;;;4.30;2.40;;;;;;;16.16;55.34;100951.91;130923;1254;108542;-77
2024/04/10 13:30:15;;;;;;;3.20;2.70;;;;;;;16.05;55.53;100954.04;131073;1251;107348;-77
2024/04/10 13:33:21;;;;;;;3.90;3.00;;;;;;;16.05;55.72;100964.33;131276;1254;107413;-77
2024/04/10 13:36:27;;;;;;;4.20;3.00;;;;;;;15.98;55.71;100964.67;131243;1265;107730;-77
2024/04/10 13:39:32;;;;;;;4.80;3.20;;;;;;;15.97;55.92;100972.95;130991;1255;107890;-76
2024/04/10 13:42:38;;;;;;;5.30;2.30;;;;;;;15.81;56.17;100979.52;130894;1254;108046;-77
2024/04/10 13:45:49;;;;;;;5.60;2.40;;;;;;;15.70;56.70;100991.50;130997;1255;106894;-77
2024/04/10 13:48:55;;;;;;;2.40;2.00;;;;;;;15.55;56.65;100992.70;131029;1255;107464;-77
2024/04/10 13:52:01;;;;;;;3.90;2.20;;;;;;;15.55;56.69;100995.79;131140;1254;108777;-76
2024/04/10 13:55:08;;;;;;;3.90;2.10;;;;;;;15.57;56.69;100995.41;131161;1255;108746;-76
2024/04/10 13:58:13;;;;;;;2.90;2.30;;;;;;;15.47;56.34;101002.04;131182;1254;107792;-76
2024/04/10 14:01:20;;;;;;;3.00;2.00;;;;;;;15.35;56.38;101001.25;131158;1254;106982;-76
2024/04/10 14:04:25;;;;;;;3.80;2.30;;;;;;;15.26;56.74;101011.24;131115;1266;107683;-76
2024/04/10 14:07:31;;;;;;;4.70;2.30;;;;;;;15.17;57.09;101007.98;131158;1253;106547;-76